createdAt,value
2022-09-15T05:00:44.086Z,14.45
2022-09-15T05:03:16.294Z,14.48
2022-09-15T05:05:48.503Z,14.55
2022-09-15T05:08:17.243Z,14.58
2022-09-15T05:10:46.245Z,14.62
2022-09-15T05:13:15.246Z,14.66
2022-09-15T05:15:44.203Z,14.68
2022-09-15T05:18:13.126Z,14.70
2022-09-15T05:20:41.905Z,14.73
2022-09-15T05:23:11.065Z,14.72
2022-09-15T05:25:39.890Z,14.69
2022-09-15T05:28:08.603Z,14.68
2022-09-15T05:30:44.883Z,14.68
2022-09-15T05:33:17.224Z,14.71
2022-09-15T05:36:01.063Z,14.73
2022-09-15T05:38:32.543Z,14.76
2022-09-15T05:41:05.406Z,14.78
2022-09-15T05:43:36.947Z,14.76
2022-09-15T05:46:07.956Z,14.77
2022-09-15T05:48:37.531Z,14.78
2022-09-15T05:51:07.509Z,14.84
2022-09-15T05:53:37.312Z,14.86
2022-09-15T05:56:12.285Z,14.88
2022-09-15T05:58:43.465Z,14.95
2022-09-15T06:01:26.293Z,15.03
2022-09-15T06:03:57.323Z,15.14
2022-09-15T06:06:29.897Z,15.30
2022-09-15T06:09:02.170Z,15.39
2022-09-15T06:11:35.684Z,15.38
2022-09-15T06:14:06.674Z,15.32
2022-09-15T06:16:37.685Z,15.29
2022-09-15T06:19:13.131Z,15.29
2022-09-15T06:21:49.943Z,15.24
2022-09-15T06:24:19.839Z,15.22
2022-09-15T06:26:49.894Z,15.18
2022-09-15T06:29:20.031Z,15.17
2022-09-15T06:31:50.082Z,15.20
2022-09-15T06:34:29.013Z,15.29
2022-09-15T06:36:58.831Z,15.32
2022-09-15T06:39:28.328Z,15.42
2022-09-15T06:42:05.811Z,15.48
2022-09-15T06:44:35.023Z,15.42
2022-09-15T06:47:04.832Z,15.42
2022-09-15T06:49:33.920Z,15.47
2022-09-15T06:52:03.425Z,15.61
2022-09-15T06:54:32.183Z,15.68
2022-09-15T06:57:01.003Z,15.63
2022-09-15T06:59:29.945Z,15.63
2022-09-15T07:02:06.138Z,15.64
2022-09-15T07:04:39.141Z,15.68
2022-09-15T07:07:09.317Z,15.84
2022-09-15T07:09:42.815Z,15.95
2022-09-15T07:12:13.592Z,16.07
2022-09-15T07:14:43.407Z,16.13
2022-09-15T07:17:12.200Z,16.13
2022-09-15T07:19:41.903Z,16.20
2022-09-15T07:22:12.364Z,16.25
2022-09-15T07:24:41.025Z,16.27
2022-09-15T07:27:10.083Z,16.32
2022-09-15T07:29:39.165Z,16.42
2022-09-15T07:32:08.154Z,16.47
2022-09-15T07:34:36.906Z,16.55
2022-09-15T07:37:06.727Z,16.58
2022-09-15T07:39:35.622Z,16.64
2022-09-15T07:42:06.763Z,16.60
2022-09-15T07:44:35.648Z,16.65
2022-09-15T07:47:04.684Z,16.71
2022-09-15T07:49:33.633Z,16.78
2022-09-15T07:52:03.307Z,16.83
2022-09-15T07:54:32.044Z,16.87
2022-09-15T07:57:01.126Z,16.85
2022-09-15T07:59:29.999Z,16.84
2022-09-15T08:01:58.750Z,16.92
2022-09-15T08:04:27.794Z,17.10
2022-09-15T08:06:57.483Z,17.37
2022-09-15T08:09:26.503Z,17.48
2022-09-15T08:11:55.304Z,17.58
2022-09-15T08:14:31.877Z,17.64
2022-09-15T08:17:04.528Z,17.55
2022-09-15T08:19:36.426Z,17.58
2022-09-15T08:22:05.620Z,17.71
2022-09-15T08:24:35.210Z,17.75
2022-09-15T08:27:04.361Z,17.86
2022-09-15T08:29:33.203Z,17.92
2022-09-15T08:32:02.925Z,18.06
2022-09-15T08:34:32.108Z,18.16
2022-09-15T08:37:01.005Z,18.14
2022-09-15T08:39:29.683Z,18.07
2022-09-15T08:42:02.005Z,17.99
2022-09-15T09:26:28.809Z,19.32
2022-09-15T09:29:08.585Z,19.25
2022-09-15T09:31:37.740Z,19.23
2022-09-15T09:34:42.879Z,19.20
2022-09-15T09:37:17.717Z,19.19
2022-09-15T09:39:48.073Z,19.14
2022-09-15T09:42:19.746Z,19.14
2022-09-15T09:44:59.339Z,19.17
2022-09-15T09:51:40.166Z,19.26
2022-09-15T09:54:18.387Z,19.37
2022-09-15T09:56:52.547Z,19.41
2022-09-15T09:59:42.671Z,19.42
2022-09-15T10:02:16.512Z,19.41
2022-09-15T10:04:55.769Z,19.36
2022-09-15T10:07:27.528Z,19.36
2022-09-15T10:10:00.586Z,19.36
2022-09-15T10:12:41.878Z,19.40
2022-09-15T10:15:26.724Z,19.38
2022-09-15T10:17:57.603Z,19.37
2022-09-15T10:20:46.167Z,19.30
2022-09-15T10:23:18.228Z,19.27
2022-09-15T10:25:59.162Z,19.30
2022-09-15T10:28:29.632Z,19.33
2022-09-15T10:31:11.826Z,19.39
2022-09-15T10:33:46.057Z,19.46
2022-09-15T10:36:20.956Z,19.58
2022-09-15T10:38:56.824Z,19.73
2022-09-15T10:41:32.427Z,19.81
2022-09-15T10:44:45.091Z,19.80
2022-09-15T10:47:56.076Z,19.68
2022-09-15T10:50:52.418Z,19.68
2022-09-15T10:54:04.017Z,19.52
2022-09-15T10:56:52.863Z,19.54
2022-09-15T10:59:48.475Z,19.58
2022-09-15T11:03:21.775Z,19.69
2022-09-15T11:06:11.963Z,19.71
2022-09-15T11:09:16.098Z,19.69
2022-09-15T11:12:54.712Z,19.67
2022-09-15T11:16:00.493Z,19.54
2022-09-15T11:19:27.438Z,19.41
2022-09-15T11:22:07.778Z,19.36
2022-09-15T11:24:50.493Z,19.40
2022-09-15T11:27:38.022Z,19.43
2022-09-15T11:30:34.153Z,19.49
2022-09-15T11:33:40.403Z,19.42
2022-09-15T11:36:23.352Z,19.40
2022-09-15T11:39:13.632Z,19.45
2022-09-15T11:41:56.953Z,19.52
2022-09-15T11:44:40.112Z,19.61
2022-09-15T11:48:21.907Z,19.85
2022-09-15T11:57:32.598Z,20.18
2022-09-15T12:00:15.344Z,20.24
2022-09-15T12:03:23.645Z,20.11
2022-09-15T12:06:02.973Z,19.97
2022-09-15T12:08:47.596Z,19.95
2022-09-15T12:11:26.388Z,19.94
2022-09-15T12:13:56.363Z,19.96
2022-09-15T12:16:27.668Z,20.04
2022-09-15T12:19:38.099Z,20.02
2022-09-15T12:22:23.867Z,20.09
2022-09-15T12:25:06.625Z,20.14
2022-09-15T12:27:36.417Z,20.09
2022-09-15T12:30:07.049Z,20.07
2022-09-15T12:32:37.103Z,20.04
2022-09-15T12:35:18.912Z,19.96
2022-09-15T12:37:59.427Z,19.91
2022-09-15T12:40:31.330Z,19.88
2022-09-15T12:43:16.350Z,19.83
2022-09-15T12:46:02.489Z,19.83
2022-09-15T12:48:36.833Z,19.84
2022-09-15T12:51:13.425Z,19.85
2022-09-15T12:53:55.840Z,19.91
2022-09-15T12:56:30.352Z,19.91
2022-09-15T12:59:14.233Z,19.85
2022-09-15T13:01:51.387Z,19.92
2022-09-15T13:04:44.339Z,19.96
2022-09-15T13:07:16.084Z,20.00
2022-09-15T13:09:58.416Z,20.08
2022-09-15T13:12:43.988Z,20.20
2022-09-15T13:15:19.124Z,20.30
2022-09-15T13:17:48.626Z,20.40
2022-09-15T13:20:30.625Z,20.48
2022-09-15T13:23:02.214Z,20.67
2022-09-15T13:25:31.785Z,20.70
2022-09-15T13:28:03.939Z,20.66
2022-09-15T13:31:06.919Z,20.58
2022-09-15T13:41:04.903Z,19.69
2022-09-15T13:43:58.876Z,19.37
2022-09-15T13:46:56.729Z,19.14
2022-09-15T13:50:16.611Z,18.94
2022-09-15T13:53:27.181Z,18.76
2022-09-15T13:55:57.250Z,18.62
2022-09-15T14:01:26.237Z,18.33
2022-09-15T14:04:24.988Z,18.27
2022-09-15T14:07:01.084Z,18.30
2022-09-15T14:09:47.928Z,18.41
2022-09-15T14:12:19.108Z,18.56
2022-09-15T14:14:58.970Z,18.72
2022-09-15T14:17:30.417Z,18.80
2022-09-15T14:20:02.188Z,18.81
2022-09-15T14:22:34.724Z,18.85
2022-09-15T14:25:15.150Z,18.90
2022-09-15T14:27:51.588Z,18.95
2022-09-15T14:30:32.848Z,18.99
2022-09-15T14:33:04.450Z,18.99
2022-09-15T14:35:39.140Z,19.05
2022-09-15T14:38:20.450Z,19.08
2022-09-15T14:40:57.409Z,19.09
2022-09-15T14:43:40.950Z,19.08
2022-09-15T14:46:18.015Z,19.09
2022-09-15T14:48:47.350Z,19.07
2022-09-15T14:51:26.137Z,19.10
2022-09-15T14:54:03.716Z,19.12
2022-09-15T14:56:50.059Z,19.12
2022-09-15T14:59:47.825Z,19.08
2022-09-15T15:02:45.206Z,18.95
2022-09-15T15:05:26.966Z,18.75
2022-09-15T15:30:51.856Z,18.41
2022-09-15T15:33:28.198Z,18.29
2022-09-15T15:36:12.266Z,18.19
2022-09-15T15:38:47.522Z,18.10
2022-09-15T15:41:31.444Z,18.01
2022-09-15T15:44:07.476Z,17.94
2022-09-15T15:47:01.568Z,17.87
2022-09-15T15:49:32.648Z,17.80
2022-09-15T15:52:01.922Z,17.73
2022-09-15T15:54:29.373Z,17.67
2022-09-15T15:57:24.686Z,17.60
2022-09-15T15:59:58.158Z,17.51
2022-09-15T16:02:26.900Z,17.42
2022-09-15T16:04:55.038Z,17.36
2022-09-15T16:07:28.881Z,17.30
2022-09-15T16:10:01.618Z,17.25
2022-09-15T16:12:30.819Z,17.19
2022-09-15T16:15:01.048Z,17.13
2022-09-15T16:17:28.306Z,17.11
2022-09-15T16:19:55.976Z,17.08
2022-09-15T16:22:23.517Z,17.05
2022-09-15T16:24:52.619Z,17.03
2022-09-15T16:27:20.178Z,16.97
2022-09-15T16:29:48.048Z,16.93
2022-09-15T16:32:21.388Z,16.88
2022-09-15T16:34:52.390Z,16.87
2022-09-15T16:37:20.767Z,16.82
2022-09-15T16:39:48.582Z,16.78
2022-09-15T16:42:16.178Z,16.71
2022-09-15T16:44:44.148Z,16.65
2022-09-15T16:47:11.308Z,16.60
2022-09-15T16:49:39.289Z,16.54
2022-09-15T16:52:13.308Z,16.50
2022-09-15T16:54:40.550Z,16.47
2022-09-15T16:57:07.908Z,16.45
2022-09-15T16:59:35.986Z,16.41
2022-09-15T17:02:05.490Z,16.36
2022-09-15T17:04:32.927Z,16.29
2022-09-15T17:07:00.287Z,16.20
2022-09-15T17:09:27.549Z,16.09
2022-09-15T17:11:55.878Z,15.99
2022-09-15T17:14:23.389Z,15.87
2022-09-15T17:16:52.787Z,15.79
2022-09-15T17:19:20.437Z,15.73
2022-09-15T17:21:49.934Z,15.68
2022-09-15T17:24:18.049Z,15.64
2022-09-15T17:26:45.910Z,15.62
2022-09-15T17:29:13.439Z,15.64
2022-09-15T17:31:41.153Z,15.65
2022-09-15T17:34:14.106Z,15.64
2022-09-15T17:36:41.566Z,15.63
2022-09-15T17:39:09.207Z,15.65
2022-09-15T17:41:38.406Z,15.68
2022-09-15T17:44:11.116Z,15.67
2022-09-15T17:46:38.594Z,15.66
2022-09-15T17:49:06.305Z,15.65
2022-09-15T17:51:33.986Z,15.62
2022-09-15T17:54:01.349Z,15.58
2022-09-15T17:56:28.995Z,15.56
2022-09-15T17:58:56.346Z,15.55
2022-09-15T18:01:24.008Z,15.55
2022-09-15T18:03:51.457Z,15.54
2022-09-15T18:06:18.926Z,15.52
2022-09-15T18:08:46.431Z,15.51
2022-09-15T18:11:15.185Z,15.50
2022-09-15T18:13:42.770Z,15.46
2022-09-15T18:16:14.322Z,15.42
2022-09-15T18:18:42.646Z,15.40
2022-09-15T18:21:25.692Z,15.38
2022-09-15T18:23:53.147Z,15.31
2022-09-15T18:26:23.848Z,15.25
2022-09-15T18:28:54.253Z,15.20
2022-09-15T18:31:21.947Z,15.13
2022-09-15T18:33:49.326Z,15.10
2022-09-15T18:36:16.876Z,15.06
2022-09-15T18:38:44.037Z,15.01
2022-09-15T18:41:11.585Z,14.96
2022-09-15T18:43:39.147Z,14.88
2022-09-15T18:46:06.935Z,14.82
2022-09-15T18:48:34.270Z,14.76
2022-09-15T18:51:01.538Z,14.70
2022-09-15T18:53:30.009Z,14.65
2022-09-15T18:55:58.434Z,14.62
2022-09-15T18:58:26.575Z,14.54
2022-09-15T19:01:00.070Z,14.47
2022-09-15T19:03:28.357Z,14.39
2022-09-15T19:05:55.996Z,14.34
2022-09-15T19:08:23.354Z,14.29
2022-09-15T19:10:59.057Z,14.24
2022-09-15T19:13:28.536Z,14.21
2022-09-15T19:16:02.041Z,14.18
2022-09-15T19:18:31.226Z,14.12
2022-09-15T19:21:11.211Z,14.07
2022-09-15T19:23:39.746Z,14.01
2022-09-15T19:26:18.749Z,13.99
2022-09-15T19:28:51.237Z,13.98
2022-09-15T19:31:19.778Z,13.96
2022-09-15T19:33:48.307Z,13.93
2022-09-15T19:36:28.154Z,13.88
2022-09-15T19:39:02.798Z,13.80
2022-09-15T19:41:31.266Z,13.74
2022-09-15T19:44:02.217Z,13.71
2022-09-15T19:46:31.400Z,13.71
2022-09-15T19:48:59.075Z,13.70
2022-09-15T19:51:26.326Z,13.67
2022-09-15T19:53:58.792Z,13.62
2022-09-15T19:56:28.249Z,13.57
2022-09-15T19:58:58.648Z,13.53
2022-09-15T20:01:29.144Z,13.52
2022-09-15T20:06:43.515Z,13.49
2022-09-15T20:09:11.286Z,13.46
2022-09-15T20:11:39.249Z,13.44
2022-09-15T20:14:06.931Z,13.43
2022-09-15T20:16:35.391Z,13.45
2022-09-15T20:19:04.580Z,13.46
2022-09-15T20:21:52.306Z,13.48
2022-09-15T20:24:23.510Z,13.48
2022-09-15T20:26:52.595Z,13.49
2022-09-15T20:29:21.091Z,13.46
2022-09-15T20:31:48.846Z,13.43
2022-09-15T20:34:18.288Z,13.42
2022-09-15T20:36:45.786Z,13.43
2022-09-15T20:39:15.558Z,13.43
2022-09-15T20:41:46.589Z,13.44
2022-09-15T20:44:15.127Z,13.44
2022-09-15T20:46:43.092Z,13.42
2022-09-15T20:49:12.108Z,13.39
2022-09-15T20:51:39.537Z,13.38
2022-09-15T20:54:06.899Z,13.39
2022-09-15T20:56:37.865Z,13.40
2022-09-15T20:59:07.528Z,13.39
2022-09-15T21:01:38.043Z,13.35
2022-09-15T21:04:08.712Z,13.34
2022-09-15T21:06:37.397Z,13.30
2022-09-15T21:09:05.356Z,13.27
2022-09-15T21:11:33.745Z,13.24
2022-09-15T21:14:02.176Z,13.22
2022-09-15T21:16:30.052Z,13.19
2022-09-15T21:18:58.832Z,13.16
2022-09-15T21:21:30.099Z,13.11
2022-09-15T21:24:03.326Z,13.05
2022-09-15T21:26:59.866Z,12.99
2022-09-15T21:29:28.425Z,12.95
2022-09-15T21:31:56.477Z,12.93
2022-09-15T21:34:24.367Z,12.90
2022-09-15T21:36:53.156Z,12.84
2022-09-15T21:39:21.237Z,12.81
2022-09-15T21:41:49.508Z,12.83
2022-09-15T21:44:16.969Z,12.85
2022-09-15T21:46:46.786Z,12.86
2022-09-15T21:49:14.872Z,12.88
2022-09-15T21:51:42.407Z,12.91
2022-09-15T21:54:10.378Z,12.90
2022-09-15T21:56:38.256Z,12.90
